Harrow, Canada
Current Conditions -  °F | °C
As of 8:34 PM on Friday 24 Oct 2014 (Local Time) from KONZ Reporting Station
Scattered Clouds Scattered Clouds  
Wind Chill: 55°   Ceiling: Unl
Heat Index: 55°   Visibility: 10mi
Dew Point: 46°   Wind: 3mph
Humidity: 72%   Direction: 220°SW
Pressure: 29.98"   Gusts: NA
Location:  42.03°N, 82.92°W
Report Text: KONZ 250034Z AUTO 22003KT 10SM SCT042 13/08 A2998 RMK AO2
Loading
Personal Weather Stations






























Interactive Weather Map
Tropical Storm Tracking
New forecast layout! Learn more

10-Day Weather Forecast

Advertisements
Track Severe Weather on mobile